sensor_id;sensor_type;location;lat;lon;timestamp;pressure;altitude;pressure_sealevel;temperature;humidity
76603;BME280;65075;48.390;17.598;2023-10-19T00:01:27;99064.03;;;11.50;50.74
76603;BME280;65075;48.390;17.598;2023-10-19T00:03:54;99055.84;;;10.44;53.06
76603;BME280;65075;48.390;17.598;2023-10-19T00:06:22;99046.09;;;11.11;51.61
76603;BME280;65075;48.390;17.598;2023-10-19T00:08:51;99049.31;;;11.18;51.67
76603;BME280;65075;48.390;17.598;2023-10-19T00:11:19;99039.13;;;10.95;51.77
76603;BME280;65075;48.390;17.598;2023-10-19T00:13:51;99024.25;;;11.11;52.19
76603;BME280;65075;48.390;17.598;2023-10-19T00:16:21;99028.69;;;11.02;52.02
76603;BME280;65075;48.390;17.598;2023-10-19T00:18:55;99036.50;;;11.47;50.70
76603;BME280;65075;48.390;17.598;2023-10-19T00:21:26;99001.25;;;11.17;51.52
76603;BME280;65075;48.390;17.598;2023-10-19T00:23:57;99018.16;;;11.19;52.12
76603;BME280;65075;48.390;17.598;2023-10-19T00:26:24;99015.00;;;11.07;52.43
76603;BME280;65075;48.390;17.598;2023-10-19T00:28:55;99012.31;;;11.30;52.37
76603;BME280;65075;48.390;17.598;2023-10-19T00:31:27;99008.22;;;11.04;52.82
76603;BME280;65075;48.390;17.598;2023-10-19T00:33:54;99012.88;;;11.56;51.95
76603;BME280;65075;48.390;17.598;2023-10-19T00:36:22;98997.75;;;11.11;53.43
76603;BME280;65075;48.390;17.598;2023-10-19T00:38:50;98999.28;;;10.93;53.48
76603;BME280;65075;48.390;17.598;2023-10-19T00:41:23;98997.63;;;11.26;53.44
76603;BME280;65075;48.390;17.598;2023-10-19T00:43:57;99000.22;;;11.65;52.02
76603;BME280;65075;48.390;17.598;2023-10-19T00:46:31;99000.91;;;10.95;53.88
76603;BME280;65075;48.390;17.598;2023-10-19T00:49:18;98938.25;;;10.79;53.73
76603;BME280;65075;48.390;17.598;2023-10-19T00:51:58;98991.22;;;11.12;54.01
76603;BME280;65075;48.390;17.598;2023-10-19T00:54:48;98983.84;;;11.36;53.52
76603;BME280;65075;48.390;17.598;2023-10-19T00:57:27;98960.34;;;11.40;54.04
76603;BME280;65075;48.390;17.598;2023-10-19T01:00:01;98968.81;;;11.39;53.49
76603;BME280;65075;48.390;17.598;2023-10-19T01:02:40;98962.97;;;11.22;54.55
76603;BME280;65075;48.390;17.598;2023-10-19T01:05:18;98902.66;;;10.95;54.27
76603;BME280;65075;48.390;17.598;2023-10-19T01:07:49;98965.00;;;11.11;54.34
76603;BME280;65075;48.390;17.598;2023-10-19T01:10:32;98956.63;;;11.55;53.59
76603;BME280;65075;48.390;17.598;2023-10-19T01:12:59;98945.44;;;11.28;54.25
76603;BME280;65075;48.390;17.598;2023-10-19T01:15:25;98949.06;;;11.47;53.60
76603;BME280;65075;48.390;17.598;2023-10-19T01:18:03;98939.75;;;11.48;53.90
76603;BME280;65075;48.390;17.598;2023-10-19T01:20:32;98917.56;;;11.31;53.11
76603;BME280;65075;48.390;17.598;2023-10-19T01:23:08;98938.09;;;11.52;52.96
76603;BME280;65075;48.390;17.598;2023-10-19T01:25:57;98933.50;;;11.71;52.79
76603;BME280;65075;48.390;17.598;2023-10-19T01:28:27;98927.56;;;11.40;53.52
76603;BME280;65075;48.390;17.598;2023-10-19T01:31:21;98926.38;;;11.75;52.15
76603;BME280;65075;48.390;17.598;2023-10-19T01:34:04;98924.00;;;11.40;53.34
76603;BME280;65075;48.390;17.598;2023-10-19T01:36:33;98918.75;;;11.72;52.55
76603;BME280;65075;48.390;17.598;2023-10-19T01:39:10;98919.88;;;11.42;53.23
76603;BME280;65075;48.390;17.598;2023-10-19T01:41:41;98907.44;;;11.79;52.07
76603;BME280;65075;48.390;17.598;2023-10-19T01:44:10;98907.16;;;11.57;52.46
76603;BME280;65075;48.390;17.598;2023-10-19T01:46:42;98900.94;;;11.51;52.80
76603;BME280;65075;48.390;17.598;2023-10-19T01:49:15;98892.22;;;11.25;53.91
76603;BME280;65075;48.390;17.598;2023-10-19T01:51:52;98906.53;;;11.41;54.03
76603;BME280;65075;48.390;17.598;2023-10-19T01:54:24;98865.09;;;11.34;54.22
76603;BME280;65075;48.390;17.598;2023-10-19T01:56:55;98887.41;;;11.41;54.12
76603;BME280;65075;48.390;17.598;2023-10-19T01:59:25;98873.19;;;11.86;53.51
76603;BME280;65075;48.390;17.598;2023-10-19T02:01:55;98863.91;;;11.64;54.08
76603;BME280;65075;48.390;17.598;2023-10-19T02:04:23;98829.88;;;11.93;53.18
76603;BME280;65075;48.390;17.598;2023-10-19T02:06:50;98856.88;;;11.58;54.36
76603;BME280;65075;48.390;17.598;2023-10-19T02:09:18;98849.53;;;11.77;53.69
76603;BME280;65075;48.390;17.598;2023-10-19T02:11:47;98864.44;;;11.42;54.45
76603;BME280;65075;48.390;17.598;2023-10-19T02:14:16;98861.38;;;11.67;53.85
76603;BME280;65075;48.390;17.598;2023-10-19T02:16:48;98873.28;;;11.81;53.18
76603;BME280;65075;48.390;17.598;2023-10-19T02:19:19;98850.16;;;11.69;52.96
76603;BME280;65075;48.390;17.598;2023-10-19T02:21:56;98851.91;;;11.41;54.26
76603;BME280;65075;48.390;17.598;2023-10-19T02:24:25;98824.50;;;11.04;54.92
76603;BME280;65075;48.390;17.598;2023-10-19T02:26:57;98832.84;;;11.78;53.21
76603;BME280;65075;48.390;17.598;2023-10-19T02:29:24;98836.09;;;11.99;52.59
76603;BME280;65075;48.390;17.598;2023-10-19T02:31:55;98833.22;;;11.48;54.04
76603;BME280;65075;48.390;17.598;2023-10-19T02:34:23;98830.56;;;11.62;53.57
76603;BME280;65075;48.390;17.598;2023-10-19T02:36:49;98791.16;;;11.49;53.61
76603;BME280;65075;48.390;17.598;2023-10-19T02:39:16;98821.91;;;11.36;54.28
76603;BME280;65075;48.390;17.598;2023-10-19T02:41:55;98828.31;;;11.26;54.49
76603;BME280;65075;48.390;17.598;2023-10-19T02:44:23;98817.84;;;11.94;53.02
76603;BME280;65075;48.390;17.598;2023-10-19T02:46:53;98795.78;;;11.67;53.66
76603;BME280;65075;48.390;17.598;2023-10-19T02:49:27;98808.06;;;11.51;54.16
76603;BME280;65075;48.390;17.598;2023-10-19T02:51:55;98805.00;;;11.95;53.76
76603;BME280;65075;48.390;17.598;2023-10-19T02:54:30;98800.25;;;11.63;54.54
76603;BME280;65075;48.390;17.598;2023-10-19T02:57:00;98813.00;;;11.68;54.29
76603;BME280;65075;48.390;17.598;2023-10-19T02:59:27;98816.25;;;11.32;55.07
76603;BME280;65075;48.390;17.598;2023-10-19T03:02:00;98822.41;;;11.99;53.58
76603;BME280;65075;48.390;17.598;2023-10-19T03:04:29;98804.50;;;11.32;55.02
76603;BME280;65075;48.390;17.598;2023-10-19T03:06:56;98819.84;;;11.70;55.16
76603;BME280;65075;48.390;17.598;2023-10-19T03:09:29;98801.19;;;11.54;55.51
76603;BME280;65075;48.390;17.598;2023-10-19T03:12:00;98818.16;;;11.74;54.99
76603;BME280;65075;48.390;17.598;2023-10-19T03:14:32;98803.19;;;11.48;56.34
76603;BME280;65075;48.390;17.598;2023-10-19T03:16:59;98797.66;;;11.11;56.88
76603;BME280;65075;48.390;17.598;2023-10-19T03:19:26;98824.50;;;11.88;54.81
76603;BME280;65075;48.390;17.598;2023-10-19T03:21:53;98789.88;;;11.84;54.39
76603;BME280;65075;48.390;17.598;2023-10-19T03:24:21;98799.31;;;11.30;56.72
76603;BME280;65075;48.390;17.598;2023-10-19T03:27:05;98784.56;;;11.50;56.38
76603;BME280;65075;48.390;17.598;2023-10-19T03:29:42;98799.34;;;12.24;54.62
76603;BME280;65075;48.390;17.598;2023-10-19T03:32:15;98797.47;;;11.44;56.64
76603;BME280;65075;48.390;17.598;2023-10-19T03:34:43;98783.53;;;11.46;56.80
76603;BME280;65075;48.390;17.598;2023-10-19T03:37:14;98777.84;;;11.24;57.83
76603;BME280;65075;48.390;17.598;2023-10-19T03:39:42;98763.88;;;11.07;57.70
76603;BME280;65075;48.390;17.598;2023-10-19T03:42:15;98763.59;;;11.27;57.85
76603;BME280;65075;48.390;17.598;2023-10-19T03:44:43;98767.91;;;10.62;59.90
76603;BME280;65075;48.390;17.598;2023-10-19T03:47:16;98769.56;;;11.29;58.44
76603;BME280;65075;48.390;17.598;2023-10-19T03:49:50;98737.63;;;11.29;58.04
76603;BME280;65075;48.390;17.598;2023-10-19T03:52:17;98745.56;;;11.07;59.38
76603;BME280;65075;48.390;17.598;2023-10-19T03:54:44;98745.06;;;10.81;59.89
76603;BME280;65075;48.390;17.598;2023-10-19T03:57:21;98742.03;;;11.07;59.43
76603;BME280;65075;48.390;17.598;2023-10-19T03:59:58;98737.41;;;10.83;60.44
76603;BME280;65075;48.390;17.598;2023-10-19T04:02:27;98737.13;;;11.46;59.12
76603;BME280;65075;48.390;17.598;2023-10-19T04:05:03;98722.88;;;11.49;58.89
76603;BME280;65075;48.390;17.598;2023-10-19T04:07:31;98723.50;;;11.22;59.79
76603;BME280;65075;48.390;17.598;2023-10-19T04:09:57;98717.75;;;11.05;60.15
76603;BME280;65075;48.390;17.598;2023-10-19T04:12:38;98713.34;;;11.46;59.56
76603;BME280;65075;48.390;17.598;2023-10-19T04:15:10;98707.06;;;11.09;60.77
76603;BME280;65075;48.390;17.598;2023-10-19T04:17:44;98718.44;;;11.16;61.15
76603;BME280;65075;48.390;17.598;2023-10-19T04:20:26;98723.59;;;10.75;62.30
76603;BME280;65075;48.390;17.598;2023-10-19T04:22:58;98695.66;;;11.02;60.95
76603;BME280;65075;48.390;17.598;2023-10-19T04:25:33;98668.78;;;10.71;61.48
76603;BME280;65075;48.390;17.598;2023-10-19T04:28:06;98677.22;;;10.93;62.39
76603;BME280;65075;48.390;17.598;2023-10-19T04:30:33;98693.50;;;10.56;63.60
76603;BME280;65075;48.390;17.598;2023-10-19T04:33:00;98714.41;;;10.42;63.74
76603;BME280;65075;48.390;17.598;2023-10-19T04:35:30;98698.06;;;10.84;62.79
76603;BME280;65075;48.390;17.598;2023-10-19T04:37:58;98684.47;;;10.61;63.89
76603;BME280;65075;48.390;17.598;2023-10-19T04:40:27;98679.00;;;11.22;61.49
76603;BME280;65075;48.390;17.598;2023-10-19T04:42:54;98673.41;;;10.52;64.33
76603;BME280;65075;48.390;17.598;2023-10-19T04:45:25;98667.44;;;10.93;62.88
76603;BME280;65075;48.390;17.598;2023-10-19T04:47:52;98679.84;;;10.61;64.39
76603;BME280;65075;48.390;17.598;2023-10-19T04:50:19;98664.25;;;11.23;62.49
76603;BME280;65075;48.390;17.598;2023-10-19T04:52:47;98672.66;;;11.08;63.39
76603;BME280;65075;48.390;17.598;2023-10-19T04:55:30;98672.25;;;10.58;65.17
76603;BME280;65075;48.390;17.598;2023-10-19T04:57:57;98669.38;;;10.68;64.55
76603;BME280;65075;48.390;17.598;2023-10-19T05:00:23;98680.75;;;10.75;64.73
76603;BME280;65075;48.390;17.598;2023-10-19T05:02:51;98667.38;;;10.55;65.19
76603;BME280;65075;48.390;17.598;2023-10-19T05:05:18;98655.28;;;10.61;65.27
76603;BME280;65075;48.390;17.598;2023-10-19T05:07:46;98665.06;;;11.05;63.56
76603;BME280;65075;48.390;17.598;2023-10-19T05:10:12;98664.50;;;10.65;65.70
76603;BME280;65075;48.390;17.598;2023-10-19T05:12:39;98659.31;;;11.25;63.77
76603;BME280;65075;48.390;17.598;2023-10-19T05:15:06;98654.53;;;11.17;63.85
76603;BME280;65075;48.390;17.598;2023-10-19T05:17:35;98663.38;;;11.09;64.08
76603;BME280;65075;48.390;17.598;2023-10-19T05:20:02;98665.78;;;11.10;64.72
76603;BME280;65075;48.390;17.598;2023-10-19T05:22:32;98679.47;;;10.68;66.18
76603;BME280;65075;48.390;17.598;2023-10-19T05:24:59;98669.41;;;11.06;65.18
76603;BME280;65075;48.390;17.598;2023-10-19T05:27:29;98664.47;;;10.89;65.16
76603;BME280;65075;48.390;17.598;2023-10-19T05:29:56;98673.63;;;11.17;65.11
76603;BME280;65075;48.390;17.598;2023-10-19T05:32:23;98666.47;;;11.21;64.37
76603;BME280;65075;48.390;17.598;2023-10-19T05:34:49;98666.91;;;11.09;65.11
76603;BME280;65075;48.390;17.598;2023-10-19T05:37:16;98659.63;;;10.62;67.03
76603;BME280;65075;48.390;17.598;2023-10-19T05:39:44;98660.34;;;10.91;66.20
76603;BME280;65075;48.390;17.598;2023-10-19T05:42:11;98655.84;;;11.01;66.23
76603;BME280;65075;48.390;17.598;2023-10-19T05:44:37;98640.78;;;10.84;66.53
76603;BME280;65075;48.390;17.598;2023-10-19T05:47:04;98658.53;;;11.24;66.72
76603;BME280;65075;48.390;17.598;2023-10-19T05:49:32;98651.69;;;10.84;66.46
76603;BME280;65075;48.390;17.598;2023-10-19T05:51:59;98642.28;;;10.96;66.71
76603;BME280;65075;48.390;17.598;2023-10-19T05:54:26;98637.88;;;12.29;62.47
76603;BME280;65075;48.390;17.598;2023-10-19T05:56:53;98629.28;;;11.76;63.99
76603;BME280;65075;48.390;17.598;2023-10-19T05:59:20;98637.47;;;11.76;64.14
76603;BME280;65075;48.390;17.598;2023-10-19T06:01:47;98628.97;;;10.70;67.59
76603;BME280;65075;48.390;17.598;2023-10-19T06:04:14;98620.72;;;10.75;67.26
76603;BME280;65075;48.390;17.598;2023-10-19T06:06:42;98619.25;;;11.02;67.55
76603;BME280;65075;48.390;17.598;2023-10-19T06:09:09;98601.94;;;10.93;66.52
76603;BME280;65075;48.390;17.598;2023-10-19T06:11:36;98642.09;;;10.68;68.43
76603;BME280;65075;48.390;17.598;2023-10-19T06:14:10;98599.31;;;11.20;66.35
76603;BME280;65075;48.390;17.598;2023-10-19T06:16:37;98629.22;;;11.11;66.79
76603;BME280;65075;48.390;17.598;2023-10-19T06:19:04;98605.78;;;10.49;68.50
76603;BME280;65075;48.390;17.598;2023-10-19T06:21:31;98636.06;;;10.71;68.85
76603;BME280;65075;48.390;17.598;2023-10-19T06:23:59;98650.41;;;11.01;68.13
76603;BME280;65075;48.390;17.598;2023-10-19T06:26:26;98639.19;;;11.21;67.29
76603;BME280;65075;48.390;17.598;2023-10-19T06:28:53;98643.16;;;11.79;65.78
76603;BME280;65075;48.390;17.598;2023-10-19T06:31:25;98623.22;;;10.90;68.46
76603;BME280;65075;48.390;17.598;2023-10-19T06:33:52;98635.41;;;11.17;67.68
76603;BME280;65075;48.390;17.598;2023-10-19T06:36:19;98619.88;;;10.99;69.30
76603;BME280;65075;48.390;17.598;2023-10-19T06:38:46;98615.47;;;11.35;67.12
76603;BME280;65075;48.390;17.598;2023-10-19T06:41:14;98620.44;;;10.96;69.32
76603;BME280;65075;48.390;17.598;2023-10-19T06:43:40;98634.72;;;10.69;69.95
76603;BME280;65075;48.390;17.598;2023-10-19T06:46:08;98636.38;;;11.26;68.32
76603;BME280;65075;48.390;17.598;2023-10-19T06:48:40;98623.66;;;11.35;68.09
76603;BME280;65075;48.390;17.598;2023-10-19T06:51:09;98618.34;;;10.87;69.69
76603;BME280;65075;48.390;17.598;2023-10-19T06:53:34;98584.44;;;10.93;69.58
76603;BME280;65075;48.390;17.598;2023-10-19T06:56:01;98619.63;;;11.32;68.08
76603;BME280;65075;48.390;17.598;2023-10-19T06:58:28;98590.56;;;11.55;67.16
76603;BME280;65075;48.390;17.598;2023-10-19T07:00:55;98623.66;;;11.35;68.00
76603;BME280;65075;48.390;17.598;2023-10-19T07:03:32;98626.81;;;11.42;68.40
76603;BME280;65075;48.390;17.598;2023-10-19T07:05:59;98615.47;;;11.67;67.39
76603;BME280;65075;48.390;17.598;2023-10-19T07:08:29;98612.19;;;11.01;69.90
76603;BME280;65075;48.390;17.598;2023-10-19T07:10:56;98622.63;;;11.31;68.64
76603;BME280;65075;48.390;17.598;2023-10-19T07:13:23;98604.81;;;11.52;68.17
76603;BME280;65075;48.390;17.598;2023-10-19T07:15:50;98587.81;;;11.55;67.73
76603;BME280;65075;48.390;17.598;2023-10-19T07:18:18;98569.47;;;11.42;66.91
76603;BME280;65075;48.390;17.598;2023-10-19T07:24:18;98558.53;;;11.10;68.88
76603;BME280;65075;48.390;17.598;2023-10-19T07:26:56;98572.53;;;11.54;67.85
76603;BME280;65075;48.390;17.598;2023-10-19T07:30:06;98537.59;;;11.70;66.94
76603;BME280;65075;48.390;17.598;2023-10-19T07:32:41;98580.50;;;11.69;67.72
76603;BME280;65075;48.390;17.598;2023-10-19T07:35:37;98579.09;;;11.85;67.51
76603;BME280;65075;48.390;17.598;2023-10-19T07:38:14;98585.19;;;11.96;66.98
76603;BME280;65075;48.390;17.598;2023-10-19T07:41:13;98511.41;;;11.50;67.10
76603;BME280;65075;48.390;17.598;2023-10-19T07:43:51;98535.75;;;11.79;66.79
76603;BME280;65075;48.390;17.598;2023-10-19T07:46:22;98498.16;;;11.30;67.23
76603;BME280;65075;48.390;17.598;2023-10-19T07:48:48;98519.56;;;11.82;66.78
76603;BME280;65075;48.390;17.598;2023-10-19T07:51:13;98548.13;;;11.76;67.51
76603;BME280;65075;48.390;17.598;2023-10-19T07:53:40;98567.38;;;11.98;68.00
76603;BME280;65075;48.390;17.598;2023-10-19T07:56:37;98594.09;;;11.88;67.40
76603;BME280;65075;48.390;17.598;2023-10-19T07:59:29;98583.06;;;11.93;67.63
76603;BME280;65075;48.390;17.598;2023-10-19T08:01:56;98510.41;;;11.60;67.93
76603;BME280;65075;48.390;17.598;2023-10-19T08:04:23;98497.50;;;11.79;67.28
76603;BME280;65075;48.390;17.598;2023-10-19T08:06:52;98538.41;;;12.74;65.21
76603;BME280;65075;48.390;17.598;2023-10-19T08:09:21;98544.88;;;12.01;67.51
76603;BME280;65075;48.390;17.598;2023-10-19T08:11:54;98547.50;;;11.93;67.82
76603;BME280;65075;48.390;17.598;2023-10-19T08:14:30;98518.38;;;12.16;66.97
76603;BME280;65075;48.390;17.598;2023-10-19T08:17:17;98537.78;;;12.28;67.16
76603;BME280;65075;48.390;17.598;2023-10-19T08:20:21;98525.66;;;11.93;68.00
76603;BME280;65075;48.390;17.598;2023-10-19T08:22:51;98538.22;;;11.80;68.21
76603;BME280;65075;48.390;17.598;2023-10-19T08:25:18;98506.31;;;12.17;66.38
76603;BME280;65075;48.390;17.598;2023-10-19T08:27:56;98522.34;;;11.50;68.71
76603;BME280;65075;48.390;17.598;2023-10-19T08:30:31;98512.63;;;12.53;65.83
76603;BME280;65075;48.390;17.598;2023-10-19T08:32:57;98472.50;;;11.99;66.80
76603;BME280;65075;48.390;17.598;2023-10-19T08:35:30;98476.75;;;11.64;67.86
76603;BME280;65075;48.390;17.598;2023-10-19T08:37:57;98529.41;;;11.97;67.40
76603;BME280;65075;48.390;17.598;2023-10-19T08:40:25;98538.09;;;12.40;66.49
76603;BME280;65075;48.390;17.598;2023-10-19T08:42:57;98531.06;;;12.47;65.35
76603;BME280;65075;48.390;17.598;2023-10-19T08:45:25;98495.47;;;12.12;66.75
76603;BME280;65075;48.390;17.598;2023-10-19T08:48:02;98526.66;;;13.32;62.68
76603;BME280;65075;48.390;17.598;2023-10-19T08:50:33;98527.38;;;12.30;66.17
76603;BME280;65075;48.390;17.598;2023-10-19T08:53:03;98534.63;;;12.48;65.90
76603;BME280;65075;48.390;17.598;2023-10-19T08:55:36;98529.72;;;12.72;64.81
76603;BME280;65075;48.390;17.598;2023-10-19T08:58:03;98518.81;;;12.45;66.01
76603;BME280;65075;48.390;17.598;2023-10-19T09:00:48;98530.06;;;12.57;65.55
76603;BME280;65075;48.390;17.598;2023-10-19T09:03:16;98531.69;;;13.16;64.11
76603;BME280;65075;48.390;17.598;2023-10-19T09:05:45;98516.78;;;12.64;65.16
76603;BME280;65075;48.390;17.598;2023-10-19T09:08:16;98527.16;;;12.26;66.91
76603;BME280;65075;48.390;17.598;2023-10-19T09:10:45;98522.16;;;12.42;66.26
76603;BME280;65075;48.390;17.598;2023-10-19T09:13:12;98519.97;;;13.15;64.15
76603;BME280;65075;48.390;17.598;2023-10-19T09:15:42;98506.44;;;12.47;65.99
76603;BME280;65075;48.390;17.598;2023-10-19T09:18:28;98516.28;;;13.82;62.21
76603;BME280;65075;48.390;17.598;2023-10-19T09:20:58;98529.25;;;13.37;62.75
76603;BME280;65075;48.390;17.598;2023-10-19T09:23:40;98526.44;;;12.84;65.04
76603;BME280;65075;48.390;17.598;2023-10-19T09:26:10;98517.50;;;13.14;64.43
76603;BME280;65075;48.390;17.598;2023-10-19T09:28:40;98518.00;;;13.69;62.38
76603;BME280;65075;48.390;17.598;2023-10-19T09:31:07;98502.50;;;13.11;63.99
76603;BME280;65075;48.390;17.598;2023-10-19T09:33:50;98508.88;;;13.21;63.85
76603;BME280;65075;48.390;17.598;2023-10-19T09:36:17;98502.91;;;12.83;64.73
76603;BME280;65075;48.390;17.598;2023-10-19T09:38:49;98494.34;;;12.62;65.88
76603;BME280;65075;48.390;17.598;2023-10-19T09:41:21;98513.59;;;12.71;65.83
76603;BME280;65075;48.390;17.598;2023-10-19T09:43:50;98504.88;;;12.69;66.09
76603;BME280;65075;48.390;17.598;2023-10-19T09:46:27;98464.03;;;12.94;65.47
76603;BME280;65075;48.390;17.598;2023-10-19T09:48:57;98481.41;;;12.90;65.48
76603;BME280;65075;48.390;17.598;2023-10-19T09:51:25;98486.75;;;12.95;65.07
76603;BME280;65075;48.390;17.598;2023-10-19T09:54:14;98489.44;;;13.08;65.13
76603;BME280;65075;48.390;17.598;2023-10-19T09:56:50;98502.72;;;13.01;65.43
76603;BME280;65075;48.390;17.598;2023-10-19T09:59:34;98480.81;;;13.01;65.41
76603;BME280;65075;48.390;17.598;2023-10-19T10:02:11;98475.47;;;12.96;65.23
76603;BME280;65075;48.390;17.598;2023-10-19T10:04:47;98452.94;;;13.22;64.71
76603;BME280;65075;48.390;17.598;2023-10-19T10:07:16;98457.69;;;13.07;65.45
76603;BME280;65075;48.390;17.598;2023-10-19T10:09:44;98439.81;;;13.71;63.58
76603;BME280;65075;48.390;17.598;2023-10-19T10:12:30;98438.81;;;13.06;65.39
76603;BME280;65075;48.390;17.598;2023-10-19T10:15:06;98444.34;;;13.37;64.94
76603;BME280;65075;48.390;17.598;2023-10-19T10:17:35;98437.53;;;12.81;67.28
76603;BME280;65075;48.390;17.598;2023-10-19T10:22:44;98411.91;;;13.30;65.41
76603;BME280;65075;48.390;17.598;2023-10-19T10:25:29;98431.84;;;13.61;64.99
76603;BME280;65075;48.390;17.598;2023-10-19T10:27:56;98422.06;;;13.30;65.30
76603;BME280;65075;48.390;17.598;2023-10-19T10:30:24;98411.25;;;13.64;64.30
76603;BME280;65075;48.390;17.598;2023-10-19T10:32:52;98425.34;;;13.88;63.80
76603;BME280;65075;48.390;17.598;2023-10-19T10:38:08;98414.00;;;14.55;61.06
76603;BME280;65075;48.390;17.598;2023-10-19T10:40:49;98426.56;;;14.39;61.04
76603;BME280;65075;48.390;17.598;2023-10-19T10:43:19;98413.25;;;13.89;63.65
76603;BME280;65075;48.390;17.598;2023-10-19T10:45:48;98409.81;;;13.36;64.63
76603;BME280;65075;48.390;17.598;2023-10-19T10:48:19;98402.38;;;13.28;65.97
76603;BME280;65075;48.390;17.598;2023-10-19T10:50:46;98400.22;;;13.47;64.99
76603;BME280;65075;48.390;17.598;2023-10-19T10:53:15;98408.22;;;13.74;64.29
76603;BME280;65075;48.390;17.598;2023-10-19T10:55:43;98395.56;;;14.12;63.30
76603;BME280;65075;48.390;17.598;2023-10-19T10:58:19;98406.59;;;13.34;65.48
76603;BME280;65075;48.390;17.598;2023-10-19T11:00:46;98398.94;;;13.53;64.82
76603;BME280;65075;48.390;17.598;2023-10-19T11:03:23;98392.63;;;14.00;63.60
76603;BME280;65075;48.390;17.598;2023-10-19T11:05:52;98391.66;;;14.13;63.88
76603;BME280;65075;48.390;17.598;2023-10-19T11:08:24;98373.44;;;13.35;65.16
76603;BME280;65075;48.390;17.598;2023-10-19T11:10:51;98379.69;;;13.75;64.67
76603;BME280;65075;48.390;17.598;2023-10-19T11:13:24;98377.31;;;13.43;65.54
76603;BME280;65075;48.390;17.598;2023-10-19T11:16:22;98397.13;;;13.40;66.14
76603;BME280;65075;48.390;17.598;2023-10-19T11:18:49;98379.22;;;13.99;64.66
76603;BME280;65075;48.390;17.598;2023-10-19T11:21:16;98365.06;;;14.31;62.89
76603;BME280;65075;48.390;17.598;2023-10-19T11:23:49;98373.75;;;13.99;64.49
76603;BME280;65075;48.390;17.598;2023-10-19T11:26:23;98375.50;;;13.30;66.69
76603;BME280;65075;48.390;17.598;2023-10-19T11:29:01;98358.94;;;14.25;63.14
76603;BME280;65075;48.390;17.598;2023-10-19T11:31:36;98370.09;;;14.46;63.23
76603;BME280;65075;48.390;17.598;2023-10-19T11:34:09;98356.84;;;14.40;62.63
76603;BME280;65075;48.390;17.598;2023-10-19T11:36:37;98356.34;;;14.03;64.16
76603;BME280;65075;48.390;17.598;2023-10-19T11:39:07;98334.59;;;14.32;63.24
76603;BME280;65075;48.390;17.598;2023-10-19T11:41:39;98312.13;;;14.39;62.76
76603;BME280;65075;48.390;17.598;2023-10-19T11:44:07;98353.63;;;14.38;63.60
76603;BME280;65075;48.390;17.598;2023-10-19T11:46:35;98352.31;;;14.26;64.37
76603;BME280;65075;48.390;17.598;2023-10-19T11:49:02;98352.97;;;14.58;62.95
76603;BME280;65075;48.390;17.598;2023-10-19T11:51:30;98337.38;;;14.96;62.14
76603;BME280;65075;48.390;17.598;2023-10-19T11:53:58;98358.13;;;14.51;62.25
76603;BME280;65075;48.390;17.598;2023-10-19T11:56:25;98349.19;;;13.68;65.24
76603;BME280;65075;48.390;17.598;2023-10-19T11:58:51;98330.97;;;14.75;62.69
76603;BME280;65075;48.390;17.598;2023-10-19T12:01:19;98317.78;;;14.25;63.78
76603;BME280;65075;48.390;17.598;2023-10-19T12:03:45;98330.69;;;14.51;62.86
76603;BME280;65075;48.390;17.598;2023-10-19T12:06:13;98312.69;;;14.79;62.35
76603;BME280;65075;48.390;17.598;2023-10-19T12:08:45;98306.63;;;15.49;60.82
76603;BME280;65075;48.390;17.598;2023-10-19T12:11:14;98306.09;;;15.56;60.02
76603;BME280;65075;48.390;17.598;2023-10-19T12:13:46;98305.56;;;15.24;61.65
76603;BME280;65075;48.390;17.598;2023-10-19T12:16:13;98307.91;;;15.52;60.61
76603;BME280;65075;48.390;17.598;2023-10-19T12:18:42;98311.00;;;14.31;64.20
76603;BME280;65075;48.390;17.598;2023-10-19T12:21:09;98294.50;;;15.12;61.23
76603;BME280;65075;48.390;17.598;2023-10-19T12:23:44;98303.69;;;15.16;61.74
76603;BME280;65075;48.390;17.598;2023-10-19T12:26:10;98305.44;;;14.83;63.40
76603;BME280;65075;48.390;17.598;2023-10-19T12:28:41;98294.31;;;15.76;59.16
76603;BME280;65075;48.390;17.598;2023-10-19T12:31:10;98293.72;;;15.03;61.90
76603;BME280;65075;48.390;17.598;2023-10-19T12:33:39;98284.84;;;15.65;60.55
76603;BME280;65075;48.390;17.598;2023-10-19T12:36:10;98268.88;;;15.29;61.10
76603;BME280;65075;48.390;17.598;2023-10-19T12:38:55;98252.59;;;15.94;59.56
76603;BME280;65075;48.390;17.598;2023-10-19T12:41:23;98269.13;;;15.15;61.47
76603;BME280;65075;48.390;17.598;2023-10-19T12:43:53;98261.81;;;16.31;59.19
76603;BME280;65075;48.390;17.598;2023-10-19T12:46:50;98266.56;;;15.69;59.57
76603;BME280;65075;48.390;17.598;2023-10-19T12:49:18;98263.16;;;16.25;59.44
76603;BME280;65075;48.390;17.598;2023-10-19T12:51:53;98238.84;;;14.95;62.49
76603;BME280;65075;48.390;17.598;2023-10-19T12:54:21;98249.19;;;14.89;63.18
76603;BME280;65075;48.390;17.598;2023-10-19T12:56:48;98259.09;;;14.73;63.09
76603;BME280;65075;48.390;17.598;2023-10-19T12:59:16;98249.28;;;15.30;62.73
76603;BME280;65075;48.390;17.598;2023-10-19T13:01:45;98243.53;;;15.23;62.92
76603;BME280;65075;48.390;17.598;2023-10-19T13:04:19;98241.59;;;15.44;60.95
76603;BME280;65075;48.390;17.598;2023-10-19T13:06:51;98237.25;;;16.26;59.06
76603;BME280;65075;48.390;17.598;2023-10-19T13:09:18;98228.84;;;15.90;59.38
76603;BME280;65075;48.390;17.598;2023-10-19T13:11:58;98238.09;;;16.84;58.74
76603;BME280;65075;48.390;17.598;2023-10-19T13:14:26;98205.63;;;16.32;58.56
76603;BME280;65075;48.390;17.598;2023-10-19T13:16:54;98213.38;;;16.18;59.32
76603;BME280;65075;48.390;17.598;2023-10-19T13:19:24;98208.84;;;16.01;60.05
76603;BME280;65075;48.390;17.598;2023-10-19T13:21:52;98224.97;;;15.50;61.44